Drachten Airfield

EHDR · Friesland, 荷兰

使用的TAF站离机场有28 km的距离
2024年2月26日 19:002024年2月27日 07:00有效
时间
星期一
19:00
星期一
20:00
星期一
21:00
星期一
22:00
星期一
23:00
星期二
00:00
星期二
01:00
星期二
02:00
星期二
03:00
星期二
04:00
星期二
05:00
星期二
06:00
代码
VFR
VFR
VFR
VFR
VFR
VFR
VFR
VFR
VFR
VFR
VFR
VFR
天气
天空晴朗
天空晴朗
天空晴朗
天空晴朗
天空晴朗
天空晴朗
天空晴朗
天空晴朗
天空晴朗
天空晴朗
天空晴朗
天空晴朗
能见度
10 km+
10 km+
10 km+
10 km+
10 km+
10 km+
10 km+
10 km+
10 km+
10 km+
10 km+
10 km+
天花板
-
-
-
-
-
-
-
-
-
-
-
-
040°
040°
040°
040°
040°
040°
040°
040°
040°
040°
040°
040°
040°
040°
040°
040°
040°
040°
040°
040°
040°
040°
040°
040°
速度
15 kt
15 kt
15 kt
15 kt
15 kt
15 kt
15 kt
15 kt
15 kt
15 kt
15 kt
15 kt
阵风
温度/星期日

原版的

TAF EHLW 261738Z 2618/2706 04015KT 9999 SCT022

TAF Drachten Airfield

Drachten Airfield是,荷兰中的小机场。 该机场位于纬度53,11835和经度6,12995。 该机场有一条跑道: 7/25. 本场的ICAO机场代码为EHDR。 机场在Amsterdam FIR中。

该航空气象观测是针对Leeuwarden Air Base在2024年2月26日 18:38, 当地时间进行的。 从2024年2月26日 19:00到2024年2月27日 07:00, 当地时间有效.

预报

  • 在星期一 19:00和星期二 07:00之间

    • 风: 风来自040°方向,速度为15 kt。
    • 能见度: 10 km 或者更多
    • 乌云: 疏云,零星散落的云朵在2.200 ft的高度.

白天

今天,太阳从07:30升起,在18:06降落。 这适用于Drachten Airfield,世界夏令时可能有所不同。 当地时间与世界标准时间之间的时差为+1 小时。 当前,没有夏令时有效。